首页
METAR-TAF:

METAR-TAF

机场 :

墨爾本, 佛罗里达州, 美国

纬度: 28-06-10N, 经度: 080-38-45W, 海拔: 10米

当前天气观测

该预报发布于1小时和3分钟前的19:53 UTC
风速12节,风向东转东北
温度 29°C
湿度 55%
气压 1015 hPa
能見度: 16.1公里
少量云层高于3400英尺
多云层高于6000英尺

METAR: KMLB 231953Z 06012KT 10SM FEW034 BKN060 29/19 A2998 RMK AO2 SLP150 T02940194

时间: 16:56 (20:56 UTC)

预报

该预报发布于3小时和32分钟前的17:24 UTC
预报有效从23日的 18点(UTC)到 24日的 18点(UTC)
风速13节,风向东转东北,有时为19节阵风
能見度: 10公里
散云层高于4000英尺
从 24日的 0100点(UTC)
风速9节,风向东北
能見度: 10公里
散云层高于4000英尺
从 24日的 1500点(UTC)
风速8节,风向东北
能見度: 10公里
散云层高于4000英尺

TAF: KMLB 231724Z 2318/2418 06013G19KT P6SM SCT040 FM240100 05009KT P6SM SCT040 FM241500 05008KT P6SM SCT040

超过4000个机场的气象观测和天气预报(METAR&TAF报告)。

可查询的气象台以黄色和红色小点在地图上表示。

将鼠标移到小点上方,可查看气象台名称。

然后点击查看天气观测和预报。

如需切换地图:点击带黑十字的绿色按钮放大地图;点击带横线的绿色按钮缩小地图;或者点击绿色箭头查看邻近地区的地图。


METAR-TAF: